Time;durP1;ratioP1;P1;durP2;ratioP2;P2;SDS_P1;SDS_P2;PMS_P1;PMS_P2;Temp;Humidity;BMP_temperature;BMP_pressure;BME280_temperature;BME280_humidity;BME280_pressure;Samples;Min_cycle;Max_cycle;Signal;HPM_P1;HPM_P2
2023/08/03 00:00:00;;;;;;;8.50;2.47;;;;;;;17.99;72.50;94973.06;5087880;28;20239;-69
2023/08/03 00:02:27;;;;;;;8.10;2.47;;;;;;;18.04;70.84;94964.66;5084346;28;20172;-66
2023/08/03 00:04:53;;;;;;;6.37;2.43;;;;;;;18.02;69.27;94971.91;5063445;28;20563;-70
2023/08/03 00:07:18;;;;;;;3.60;1.83;;;;;;;18.09;67.35;94962.38;5067299;28;20460;-68
2023/08/03 00:09:46;;;;;;;7.17;2.50;;;;;;;18.24;65.43;94965.38;5066466;28;20174;-69
2023/08/03 00:12:12;;;;;;;9.83;2.43;;;;;;;18.27;64.06;94965.06;5069036;28;20719;-69
2023/08/03 00:14:37;;;;;;;6.27;2.20;;;;;;;18.31;63.37;94979.72;5067710;28;20486;-70
2023/08/03 00:17:02;;;;;;;7.93;3.30;;;;;;;18.36;62.83;94973.97;5063795;28;20229;-68
2023/08/03 00:19:28;;;;;;;7.47;2.23;;;;;;;18.32;62.47;94972.59;5071805;28;20186;-69
2023/08/03 00:21:53;;;;;;;4.10;2.47;;;;;;;18.30;62.41;94975.38;5067903;28;20691;-69
2023/08/03 00:24:18;;;;;;;6.33;2.30;;;;;;;18.32;62.14;94961.97;5087311;28;20197;-68
2023/08/03 00:26:44;;;;;;;6.10;2.33;;;;;;;18.33;61.96;94955.66;5087227;28;20259;-68
2023/08/03 00:29:09;;;;;;;5.67;2.67;;;;;;;18.31;61.67;94965.63;5086916;28;20201;-68
2023/08/03 00:31:34;;;;;;;4.83;2.13;;;;;;;18.31;61.26;94969.13;5073299;28;20607;-66
2023/08/03 00:34:00;;;;;;;6.20;2.87;;;;;;;18.30;61.47;94980.69;5081891;28;20402;-69
2023/08/03 00:36:25;;;;;;;13.30;3.03;;;;;;;18.27;62.42;94977.53;5057395;28;20207;-69
2023/08/03 00:38:50;;;;;;;6.80;2.57;;;;;;;18.18;63.21;94981.91;5046986;28;20167;-68
2023/08/03 00:41:16;;;;;;;8.63;2.73;;;;;;;18.12;63.58;94983.34;5047560;28;20248;-68
2023/08/03 00:43:42;;;;;;;4.97;2.60;;;;;;;18.08;64.25;94973.16;5047698;28;20230;-70
2023/08/03 00:46:08;;;;;;;4.53;2.20;;;;;;;17.88;65.47;94975.94;5062455;28;20254;-68
2023/08/03 00:48:33;;;;;;;15.07;2.80;;;;;;;17.82;66.27;94980.97;5067819;28;20185;-67
2023/08/03 00:51:02;;;;;;;5.53;1.83;;;;;;;17.75;67.21;94984.16;5067425;28;20416;-72
2023/08/03 00:53:29;;;;;;;4.80;2.20;;;;;;;17.76;67.93;94987.66;5067540;28;20166;-69
2023/08/03 00:55:54;;;;;;;4.13;2.20;;;;;;;17.64;68.48;94981.69;5065489;28;20460;-69
2023/08/03 00:58:19;;;;;;;7.27;2.30;;;;;;;17.53;69.29;94977.41;5067161;28;20505;-68
2023/08/03 01:00:45;;;;;;;4.47;2.20;;;;;;;17.46;70.01;94978.97;5066802;28;20181;-67
2023/08/03 01:03:10;;;;;;;5.30;2.30;;;;;;;17.41;70.64;94973.28;5067768;28;20639;-68
2023/08/03 01:05:36;;;;;;;4.57;2.53;;;;;;;17.38;71.45;94981.50;5066108;28;20197;-68
2023/08/03 01:08:01;;;;;;;12.13;2.83;;;;;;;17.40;71.55;94981.38;5066935;28;20200;-70
2023/08/03 01:10:28;;;;;;;7.80;2.87;;;;;;;17.38;71.91;94991.28;5066376;28;20181;-69
2023/08/03 01:12:55;;;;;;;5.57;2.30;;;;;;;17.37;71.97;94993.09;5066202;28;20551;-69
2023/08/03 01:15:20;;;;;;;5.07;2.37;;;;;;;17.38;71.88;94992.09;5066612;28;20423;-69
2023/08/03 01:17:46;;;;;;;5.27;2.37;;;;;;;17.35;71.94;94997.72;5066661;28;20405;-68
2023/08/03 01:20:12;;;;;;;6.40;2.33;;;;;;;17.36;71.85;94994.06;5081985;28;20201;-68
2023/08/03 01:22:42;;;;;;;7.70;2.40;;;;;;;17.21;72.56;94998.16;5069494;28;20181;-69
2023/08/03 01:25:08;;;;;;;9.23;2.40;;;;;;;17.19;72.70;95002.75;5070650;28;20166;-69
2023/08/03 01:27:33;;;;;;;4.80;2.30;;;;;;;17.19;72.72;94997.47;5070429;28;20875;-68
2023/08/03 01:29:58;;;;;;;5.60;2.17;;;;;;;17.19;72.34;94992.16;5074867;28;20166;-69
2023/08/03 01:32:24;;;;;;;10.30;4.40;;;;;;;17.18;72.30;94993.97;5072607;28;20209;-69
2023/08/03 01:34:49;;;;;;;3.63;2.40;;;;;;;17.17;72.38;94994.94;5070287;28;20553;-68
2023/08/03 01:37:17;;;;;;;4.30;2.67;;;;;;;17.21;72.28;94987.56;5070107;28;20187;-69
2023/08/03 01:39:45;;;;;;;6.70;2.30;;;;;;;17.16;72.33;94995.09;5069606;28;20182;-68
2023/08/03 01:42:12;;;;;;;4.30;2.20;;;;;;;17.16;71.88;95000.41;5064640;28;20520;-68
2023/08/03 01:44:38;;;;;;;5.83;2.57;;;;;;;17.19;71.90;94995.63;5069312;28;20972;-69
2023/08/03 01:47:03;;;;;;;4.97;2.30;;;;;;;17.10;71.95;94992.03;5069165;28;20463;-69
2023/08/03 01:49:31;;;;;;;6.10;3.00;;;;;;;17.11;71.28;94980.44;5069603;28;20491;-68
2023/08/03 01:51:56;;;;;;;6.30;2.40;;;;;;;17.10;71.64;94977.94;5070111;28;20181;-69
2023/08/03 01:54:22;;;;;;;6.43;2.50;;;;;;;17.14;70.48;94961.59;5069248;28;20428;-69
2023/08/03 01:56:47;;;;;;;4.23;2.03;;;;;;;17.09;69.38;94963.03;5069794;28;20655;-68
2023/08/03 01:59:12;;;;;;;7.40;2.13;;;;;;;17.18;65.88;94959.50;5069592;28;20166;-69
2023/08/03 02:01:39;;;;;;;4.30;2.37;;;;;;;17.40;63.30;94962.81;5069882;28;20178;-68
2023/08/03 02:04:04;;;;;;;5.20;2.53;;;;;;;17.52;61.71;94957.16;5069103;28;20187;-69
2023/08/03 02:06:30;;;;;;;9.33;3.07;;;;;;;17.59;60.67;94968.03;5069502;28;20459;-69
2023/08/03 02:08:55;;;;;;;7.50;2.50;;;;;;;17.62;59.43;94953.66;5067868;28;20545;-69
2023/08/03 02:11:20;;;;;;;7.63;2.70;;;;;;;17.57;59.46;94946.13;5067926;28;20257;-70
2023/08/03 02:13:46;;;;;;;3.90;2.00;;;;;;;17.61;58.40;94946.69;5069654;28;20197;-68
2023/08/03 02:16:11;;;;;;;13.03;2.60;;;;;;;17.79;57.40;94952.88;5069742;28;20713;-68
2023/08/03 02:18:38;;;;;;;9.80;2.73;;;;;;;17.73;57.24;94946.34;5066862;28;20202;-69
2023/08/03 02:21:04;;;;;;;9.03;2.10;;;;;;;17.81;56.49;94955.41;5067971;28;20174;-66
2023/08/03 02:23:30;;;;;;;3.20;1.77;;;;;;;17.83;55.69;94959.59;5069566;28;20404;-68
2023/08/03 02:25:55;;;;;;;7.37;1.87;;;;;;;17.85;55.59;94948.84;5069613;28;20198;-70
2023/08/03 02:28:21;;;;;;;4.17;1.87;;;;;;;17.87;55.16;94944.22;5069741;28;20256;-68
2023/08/03 02:30:46;;;;;;;4.40;1.93;;;;;;;17.92;54.67;94945.44;5076480;28;20584;-69
2023/08/03 02:33:12;;;;;;;4.27;1.80;;;;;;;17.79;54.90;94950.25;5068531;28;20174;-69
2023/08/03 02:35:39;;;;;;;9.10;2.40;;;;;;;17.79;55.08;94955.53;5069407;28;20201;-69
2023/08/03 02:38:05;;;;;;;3.00;1.20;;;;;;;17.86;54.44;94961.09;5069274;28;20179;-69
2023/08/03 02:40:30;;;;;;;4.00;1.77;;;;;;;17.81;54.10;94972.19;5068018;28;20447;-68
2023/08/03 02:42:56;;;;;;;3.23;1.57;;;;;;;17.88;53.91;94967.97;5069413;28;20181;-68
2023/08/03 02:45:21;;;;;;;6.27;1.77;;;;;;;17.80;53.78;94964.34;5069266;28;20204;-68
2023/08/03 02:47:47;;;;;;;3.40;1.53;;;;;;;17.75;54.04;94970.91;5069097;28;20198;-66
2023/08/03 02:50:13;;;;;;;5.03;1.63;;;;;;;17.75;54.66;94959.47;5068662;28;20178;-69
2023/08/03 02:52:38;;;;;;;4.53;1.57;;;;;;;17.73;55.82;94956.94;5069548;28;20170;-70
2023/08/03 02:55:04;;;;;;;3.13;1.67;;;;;;;17.61;56.04;94974.03;5063934;28;20447;-69
2023/08/03 02:57:29;;;;;;;7.97;2.17;;;;;;;17.48;57.31;95000.91;5049215;28;20201;-69
2023/08/03 02:59:55;;;;;;;4.80;1.97;;;;;;;17.44;57.98;95003.97;5065694;28;20766;-68
2023/08/03 03:02:20;;;;;;;7.63;1.50;;;;;;;17.32;59.02;95011.25;5069600;28;20183;-68
2023/08/03 03:04:46;;;;;;;7.20;1.90;;;;;;;17.12;61.46;95013.91;5068964;28;20249;-67
2023/08/03 03:07:11;;;;;;;6.17;2.33;;;;;;;17.09;62.62;95016.84;5068022;28;20237;-66
2023/08/03 03:09:36;;;;;;;9.23;2.30;;;;;;;16.95;63.95;95021.75;5068306;28;20176;-70
2023/08/03 03:12:02;;;;;;;5.30;2.67;;;;;;;16.85;64.49;95003.22;5068637;28;20253;-67
2023/08/03 03:14:27;;;;;;;6.07;1.83;;;;;;;16.85;64.50;95019.94;5067646;28;20272;-69
2023/08/03 03:16:53;;;;;;;7.97;2.97;;;;;;;17.04;63.26;95019.09;5068045;28;20347;-69
2023/08/03 03:19:18;;;;;;;6.90;3.33;;;;;;;16.93;63.64;95025.38;5068024;28;20247;-68
2023/08/03 03:21:43;;;;;;;6.67;2.97;;;;;;;17.01;63.47;95024.69;5068823;28;20174;-67
2023/08/03 03:24:09;;;;;;;8.27;2.83;;;;;;;16.85;63.87;95024.41;5068145;28;20280;-69
2023/08/03 03:26:35;;;;;;;4.40;2.20;;;;;;;16.85;63.38;95014.66;5068268;28;20289;-68
2023/08/03 03:29:00;;;;;;;10.50;3.67;;;;;;;16.87;62.88;95019.81;5066436;28;20508;-70
2023/08/03 03:31:25;;;;;;;4.07;2.47;;;;;;;16.76;63.15;95026.03;5076804;28;20262;-68
2023/08/03 03:33:51;;;;;;;7.57;2.20;;;;;;;16.86;62.83;95018.13;5068006;28;20255;-69
2023/08/03 03:36:16;;;;;;;53.53;6.70;;;;;;;16.82;62.41;95008.78;5068200;28;20182;-68
2023/08/03 03:38:42;;;;;;;38.70;5.80;;;;;;;16.86;61.80;95010.19;5067856;28;20253;-67
2023/08/03 03:41:07;;;;;;;14.37;2.10;;;;;;;16.87;61.03;95019.81;5063575;28;20182;-69
2023/08/03 03:43:32;;;;;;;6.40;2.13;;;;;;;16.88;60.34;95013.53;5067849;28;20170;-69
2023/08/03 03:45:58;;;;;;;5.50;2.23;;;;;;;16.89;60.37;95021.34;5067830;28;20197;-70
2023/08/03 03:48:23;;;;;;;17.50;2.93;;;;;;;16.84;60.21;95025.38;5066978;28;20190;-69
2023/08/03 03:50:48;;;;;;;23.60;4.40;;;;;;;16.81;60.04;95021.19;5067702;28;20166;-70
2023/08/03 03:53:14;;;;;;;7.93;2.40;;;;;;;16.88;59.59;95029.44;5068070;28;20605;-69
2023/08/03 03:55:39;;;;;;;24.07;3.37;;;;;;;16.90;59.80;95028.31;5066520;28;20969;-69
2023/08/03 03:58:05;;;;;;;9.20;2.63;;;;;;;16.83;60.05;95031.66;5067938;28;20662;-70
2023/08/03 04:00:30;;;;;;;14.33;2.83;;;;;;;16.91;60.02;95045.03;5065549;28;20178;-69
2023/08/03 04:02:56;;;;;;;11.33;2.60;;;;;;;16.93;60.03;95038.63;5072192;28;20182;-68
2023/08/03 04:05:21;;;;;;;8.07;2.13;;;;;;;16.92;59.73;95036.13;5071691;28;20174;-68
2023/08/03 04:07:47;;;;;;;8.10;2.60;;;;;;;16.93;59.59;95035.13;5067165;28;20693;-68
2023/08/03 04:10:12;;;;;;;23.73;4.30;;;;;;;16.90;60.11;95035.44;5059528;28;20178;-70
2023/08/03 04:12:37;;;;;;;52.20;6.33;;;;;;;16.91;59.84;95037.94;5067287;28;20216;-69
2023/08/03 04:15:05;;;;;;;10.23;2.83;;;;;;;16.87;59.84;95031.25;5066022;28;20216;-68
2023/08/03 04:17:30;;;;;;;4.13;1.77;;;;;;;16.89;59.08;95042.53;5063596;28;20174;-70
2023/08/03 04:19:56;;;;;;;5.00;2.00;;;;;;;16.93;59.74;95049.22;5067077;28;20431;-67
2023/08/03 04:22:21;;;;;;;7.77;2.67;;;;;;;16.95;59.87;95048.25;5064768;28;20708;-68
2023/08/03 04:24:46;;;;;;;9.67;2.67;;;;;;;16.93;59.68;95049.22;5067274;28;20215;-69
2023/08/03 04:27:12;;;;;;;7.43;2.10;;;;;;;16.95;59.13;95053.56;5071879;28;20281;-69
2023/08/03 04:29:37;;;;;;;18.50;3.07;;;;;;;17.02;59.29;95062.63;5085129;28;20173;-68
2023/08/03 04:32:03;;;;;;;6.90;3.03;;;;;;;16.97;59.26;95060.38;5068540;28;20181;-68
2023/08/03 04:34:30;;;;;;;11.90;2.10;;;;;;;16.89;59.78;95073.47;5067001;28;20206;-69
2023/08/03 04:36:55;;;;;;;8.73;2.90;;;;;;;16.99;59.59;95069.03;5067139;28;20204;-69
2023/08/03 04:39:20;;;;;;;10.10;2.13;;;;;;;16.97;59.19;95063.03;5067331;28;20503;-68
2023/08/03 04:41:46;;;;;;;13.60;2.50;;;;;;;17.01;58.84;95061.78;5067396;28;20653;-67
2023/08/03 04:44:11;;;;;;;25.17;5.10;;;;;;;16.96;59.15;95061.38;5067709;28;20219;-70
2023/08/03 04:46:36;;;;;;;15.47;4.07;;;;;;;17.11;58.97;95065.28;5067314;28;20201;-68
2023/08/03 04:49:03;;;;;;;9.60;2.37;;;;;;;17.06;59.06;95062.22;5067189;28;20205;-69
2023/08/03 04:51:28;;;;;;;11.10;3.20;;;;;;;17.67;57.02;95073.41;5067197;28;20216;-69
2023/08/03 04:53:53;;;;;;;9.03;2.40;;;;;;;18.20;55.81;95073.69;5067073;28;20404;-69
2023/08/03 04:56:19;;;;;;;6.07;1.80;;;;;;;18.76;54.27;95073.69;5068389;28;20263;-69
2023/08/03 04:58:44;;;;;;;5.80;2.10;;;;;;;18.96;53.56;95077.06;5071189;28;20178;-69
2023/08/03 05:01:10;;;;;;;6.10;2.67;;;;;;;19.04;53.27;95087.81;5071842;28;20603;-69
2023/08/03 05:03:35;;;;;;;5.30;2.30;;;;;;;19.27;52.67;95087.31;5071123;28;20178;-69
2023/08/03 05:06:00;;;;;;;10.43;2.97;;;;;;;19.40;52.23;95087.78;5071258;28;20194;-69
2023/08/03 05:08:26;;;;;;;9.40;2.70;;;;;;;19.54;51.98;95094.38;5071605;28;20198;-70
2023/08/03 05:10:51;;;;;;;10.77;4.23;;;;;;;19.64;51.62;95090.63;5069428;28;20170;-69
2023/08/03 05:13:17;;;;;;;16.67;3.80;;;;;;;19.71;51.51;95088.22;5059930;28;20186;-68
2023/08/03 05:15:44;;;;;;;11.73;2.63;;;;;;;19.90;51.37;95084.50;5061363;28;20231;-66
2023/08/03 05:18:09;;;;;;;9.87;2.90;;;;;;;19.87;51.28;95090.16;5074626;28;20201;-70
2023/08/03 05:20:35;;;;;;;7.43;1.83;;;;;;;20.00;50.99;95095.06;5071644;28;20427;-68
2023/08/03 05:23:00;;;;;;;12.30;2.40;;;;;;;20.13;50.51;95087.50;5087750;28;20170;-69
2023/08/03 05:25:25;;;;;;;8.00;2.23;;;;;;;20.45;49.81;95078.78;5094010;28;20217;-69
2023/08/03 05:27:51;;;;;;;12.00;2.30;;;;;;;20.51;49.75;95085.34;5100193;28;20608;-68
2023/08/03 05:30:16;;;;;;;10.23;2.20;;;;;;;20.50;49.49;95089.84;5098731;28;20178;-68
2023/08/03 05:32:42;;;;;;;9.47;2.10;;;;;;;20.75;48.89;95100.59;5086293;28;20166;-67
2023/08/03 05:35:07;;;;;;;5.93;2.27;;;;;;;20.78;48.71;95094.94;5085286;28;20229;-69
2023/08/03 05:37:33;;;;;;;12.17;2.33;;;;;;;20.97;48.43;95093.81;5079020;28;20162;-69
2023/08/03 05:40:02;;;;;;;7.90;2.33;;;;;;;20.88;48.37;95092.13;5071173;28;20235;-67
2023/08/03 05:42:40;;;;;;;7.67;4.03;;;;;;;21.05;47.70;95098.38;5070598;28;20178;-70
2023/08/03 05:45:13;;;;;;;7.47;2.10;;;;;;;21.22;47.40;95097.38;5070809;28;20478;-69
2023/08/03 05:47:39;;;;;;;5.87;2.83;;;;;;;21.22;47.54;95088.56;5060389;28;20464;-69
2023/08/03 05:50:15;;;;;;;4.30;1.47;;;;;;;21.30;46.81;95091.22;5065160;28;20848;-68
2023/08/03 05:52:41;;;;;;;8.60;2.20;;;;;;;21.72;48.67;95095.59;5063696;28;20231;-70
2023/08/03 05:55:11;;;;;;;3.80;1.50;;;;;;;21.99;45.81;95097.91;5069701;28;20856;-68
2023/08/03 05:57:36;;;;;;;18.73;3.20;;;;;;;22.11;45.77;95103.72;5067494;28;20179;-67
2023/08/03 06:00:04;;;;;;;9.27;2.33;;;;;;;22.49;45.18;95108.47;5068189;28;20887;-68
2023/08/03 06:02:33;;;;;;;48.10;6.40;;;;;;;22.52;44.88;95108.16;5072636;28;20261;-67
2023/08/03 06:04:59;;;;;;;22.00;3.60;;;;;;;22.72;44.62;95112.06;5069706;28;20415;-69
2023/08/03 06:07:25;;;;;;;18.10;2.57;;;;;;;22.71;44.20;95106.91;5088165;28;20455;-68
2023/08/03 06:09:50;;;;;;;12.33;2.97;;;;;;;22.60;44.82;95113.47;5089269;28;20180;-68
2023/08/03 06:12:16;;;;;;;5.53;1.80;;;;;;;22.68;44.56;95109.91;5089799;28;20416;-68
2023/08/03 06:14:41;;;;;;;9.30;2.90;;;;;;;22.61;44.54;95113.31;5090042;28;20643;-66
2023/08/03 06:17:09;;;;;;;4.23;1.80;;;;;;;23.04;44.27;95116.47;5077087;28;20201;-67
2023/08/03 06:19:35;;;;;;;2.80;1.20;;;;;;;23.03;42.96;95120.16;5072881;28;20190;-68
2023/08/03 06:22:10;;;;;;;10.60;2.10;;;;;;;22.97;42.12;95128.84;5069899;28;20420;-66
2023/08/03 06:24:36;;;;;;;11.20;2.30;;;;;;;23.17;41.63;95125.75;5056669;28;21196;-67
2023/08/03 06:27:01;;;;;;;6.60;1.30;;;;;;;23.10;41.81;95140.84;5049723;28;20456;-67
2023/08/03 06:29:26;;;;;;;3.70;1.30;;;;;;;23.02;42.08;95125.69;5065077;28;20174;-67
2023/08/03 06:31:52;;;;;;;6.07;1.50;;;;;;;22.87;41.49;95138.94;5064589;28;20568;-68
2023/08/03 06:34:17;;;;;;;4.50;1.57;;;;;;;22.97;41.07;95136.88;5066698;28;20178;-68
2023/08/03 06:36:44;;;;;;;8.77;1.80;;;;;;;23.08;41.15;95133.03;5058080;28;20200;-70
2023/08/03 06:39:09;;;;;;;9.33;1.73;;;;;;;23.02;40.61;95129.19;5062640;28;20546;-69
2023/08/03 06:41:35;;;;;;;3.37;1.10;;;;;;;23.30;40.93;95130.56;5066201;28;20448;-69
2023/08/03 06:44:01;;;;;;;3.67;1.20;;;;;;;23.37;40.84;95129.66;5069045;28;20182;-69
2023/08/03 06:46:27;;;;;;;23.63;4.13;;;;;;;23.26;40.60;95138.09;5069602;28;20206;-69
2023/08/03 06:48:53;;;;;;;7.27;1.60;;;;;;;23.46;39.92;95139.31;5069968;28;20432;-68
2023/08/03 06:51:20;;;;;;;3.60;1.70;;;;;;;23.66;39.54;95147.69;5064856;28;20232;-68
2023/08/03 06:53:46;;;;;;;6.63;1.20;;;;;;;23.80;38.86;95146.09;5069030;28;20178;-69
2023/08/03 06:56:12;;;;;;;5.57;1.60;;;;;;;23.91;38.80;95152.06;5068982;28;20440;-69
2023/08/03 06:58:38;;;;;;;15.97;2.50;;;;;;;23.99;38.86;95152.81;5069001;28;20419;-67
2023/08/03 07:01:03;;;;;;;40.93;5.07;;;;;;;24.01;38.37;95150.78;5062433;28;20189;-68
2023/08/03 07:03:29;;;;;;;17.23;3.97;;;;;;;24.29;37.68;95164.44;5064781;28;20812;-69
2023/08/03 07:05:55;;;;;;;8.23;1.57;;;;;;;24.13;36.88;95161.09;5068787;28;20206;-69
2023/08/03 07:08:20;;;;;;;9.03;1.70;;;;;;;24.02;37.31;95176.56;5069477;28;20451;-69
2023/08/03 07:10:45;;;;;;;5.13;1.40;;;;;;;23.60;36.92;95180.56;5069099;28;20266;-70
2023/08/03 07:13:11;;;;;;;3.87;1.90;;;;;;;23.26;37.58;95186.25;5069595;28;20181;-70
2023/08/03 07:15:36;;;;;;;4.53;1.33;;;;;;;22.84;38.24;95200.78;5069368;28;20198;-68
2023/08/03 07:18:04;;;;;;;1.30;0.80;;;;;;;23.33;37.55;95189.91;5069417;28;20244;-66
2023/08/03 07:20:29;;;;;;;5.20;1.23;;;;;;;23.33;37.71;95197.94;5055233;28;20174;-67
2023/08/03 07:22:54;;;;;;;7.93;1.17;;;;;;;22.78;38.30;95214.88;5049558;28;20412;-67
2023/08/03 07:25:20;;;;;;;17.70;2.20;;;;;;;22.89;38.49;95205.63;5050536;28;20170;-69
2023/08/03 07:27:45;;;;;;;3.33;1.00;;;;;;;22.75;38.39;95210.69;5057200;28;20202;-68
2023/08/03 07:30:11;;;;;;;3.70;1.30;;;;;;;22.82;38.12;95205.50;5064484;28;20174;-68
2023/08/03 07:32:37;;;;;;;3.03;1.30;;;;;;;22.97;37.74;95209.13;5088980;28;20169;-66
2023/08/03 07:35:03;;;;;;;5.90;1.70;;;;;;;23.21;37.52;95202.03;5084630;28;20178;-69
2023/08/03 07:37:28;;;;;;;5.47;0.90;;;;;;;23.58;36.83;95212.03;5069802;28;20428;-68
2023/08/03 07:39:53;;;;;;;4.33;1.00;;;;;;;23.30;36.82;95209.00;5069516;28;20714;-68
2023/08/03 07:42:19;;;;;;;7.57;1.20;;;;;;;23.35;36.98;95225.38;5069970;28;20170;-69
2023/08/03 07:44:44;;;;;;;7.53;1.43;;;;;;;23.06;37.12;95215.31;5068944;28;20186;-70
2023/08/03 07:47:10;;;;;;;2.00;0.70;;;;;;;22.69;37.91;95213.22;5070015;28;20209;-70
2023/08/03 07:49:35;;;;;;;4.10;1.00;;;;;;;22.74;37.45;95213.53;5069328;28;20185;-68
2023/08/03 07:52:01;;;;;;;5.43;1.10;;;;;;;22.84;37.50;95216.84;5068492;28;20197;-67
2023/08/03 07:54:26;;;;;;;4.73;1.30;;;;;;;23.11;37.21;95223.66;5070572;28;20202;-66
2023/08/03 07:56:51;;;;;;;5.00;1.40;;;;;;;23.31;36.93;95225.91;5067903;28;20359;-69
2023/08/03 07:59:17;;;;;;;4.57;1.17;;;;;;;23.65;36.49;95217.53;5069919;28;20170;-67
2023/08/03 08:01:43;;;;;;;18.20;2.20;;;;;;;23.71;36.36;95216.78;5070047;28;20166;-69
2023/08/03 08:04:09;;;;;;;4.03;1.33;;;;;;;23.96;35.55;95222.03;5067896;28;20174;-71
2023/08/03 08:06:35;;;;;;;5.73;1.30;;;;;;;24.44;35.06;95217.25;5068709;28;20578;-70
2023/08/03 08:09:00;;;;;;;5.57;1.40;;;;;;;24.77;34.75;95212.44;5068198;28;20532;-69
2023/08/03 08:11:26;;;;;;;4.90;1.53;;;;;;;24.80;34.26;95214.72;5067374;28;20182;-69
2023/08/03 08:13:51;;;;;;;12.17;2.67;;;;;;;25.14;33.93;95224.09;5068164;28;20185;-69
2023/08/03 08:16:17;;;;;;;5.60;2.00;;;;;;;25.26;33.91;95211.88;5068281;28;20197;-70
2023/08/03 08:18:43;;;;;;;11.13;1.70;;;;;;;25.54;33.21;95200.44;5067754;28;20605;-69
2023/08/03 08:21:11;;;;;;;8.90;2.20;;;;;;;25.44;33.38;95207.97;5067855;28;20413;-71
2023/08/03 08:23:37;;;;;;;3.53;1.30;;;;;;;25.65;32.80;95213.38;5067979;28;20197;-67
2023/08/03 08:26:13;;;;;;;1.80;0.90;;;;;;;25.67;32.51;95208.63;5067805;28;20782;-68
2023/08/03 08:28:40;;;;;;;4.10;1.20;;;;;;;25.63;32.20;95209.22;5068696;28;20408;-70
2023/08/03 08:31:05;;;;;;;8.97;1.83;;;;;;;25.78;32.03;95207.31;5081514;28;20407;-71
2023/08/03 08:33:30;;;;;;;6.23;1.70;;;;;;;25.34;31.23;95203.72;5088966;28;20418;-71
2023/08/03 08:35:56;;;;;;;6.17;1.30;;;;;;;25.13;31.26;95201.78;5089052;28;20254;-67
2023/08/03 08:38:21;;;;;;;10.63;1.80;;;;;;;25.23;31.95;95200.69;5087635;28;20173;-68
2023/08/03 08:40:47;;;;;;;9.77;2.10;;;;;;;25.28;32.29;95200.97;5087805;28;20169;-69
2023/08/03 08:43:13;;;;;;;8.17;1.50;;;;;;;25.38;31.83;95189.94;5088462;28;20165;-69
2023/08/03 08:45:39;;;;;;;5.53;1.20;;;;;;;25.31;32.14;95197.91;5087907;28;20254;-69
2023/08/03 08:48:05;;;;;;;4.37;1.30;;;;;;;25.58;32.01;95203.56;5089212;28;20455;-68
2023/08/03 08:50:32;;;;;;;4.67;0.90;;;;;;;25.26;32.70;95203.84;5087810;28;20682;-69
2023/08/03 08:52:58;;;;;;;3.00;1.03;;;;;;;25.56;32.00;95209.97;5088247;28;20403;-67
2023/08/03 08:55:25;;;;;;;4.40;1.20;;;;;;;25.38;31.65;95214.09;5087592;28;20407;-70
2023/08/03 08:57:51;;;;;;;4.53;1.40;;;;;;;25.21;32.24;95219.69;5068060;28;20432;-68
2023/08/03 09:00:17;;;;;;;3.07;0.90;;;;;;;25.03;31.12;95220.00;5067813;28;20448;-69
2023/08/03 09:02:43;;;;;;;5.53;1.60;;;;;;;24.90;30.80;95207.25;5068760;28;20178;-71
2023/08/03 09:05:09;;;;;;;7.87;2.17;;;;;;;24.98;31.75;95226.97;5066242;28;20897;-68
2023/08/03 09:07:35;;;;;;;8.40;2.43;;;;;;;24.91;31.57;95229.56;5069306;28;20212;-67
2023/08/03 09:10:03;;;;;;;2.13;0.90;;;;;;;24.88;32.02;95241.50;5071181;28;20416;-68
2023/08/03 09:12:29;;;;;;;13.73;1.80;;;;;;;24.84;32.56;95242.88;5068645;28;20174;-68
2023/08/03 09:14:55;;;;;;;8.73;1.87;;;;;;;24.89;32.08;95239.63;5068588;28;20456;-68
2023/08/03 09:17:22;;;;;;;4.57;1.20;;;;;;;25.30;31.58;95252.59;5068026;28;20182;-68
2023/08/03 09:19:48;;;;;;;6.50;1.47;;;;;;;25.06;31.66;95243.81;5068281;28;20416;-69
2023/08/03 09:22:14;;;;;;;11.47;1.53;;;;;;;25.05;31.46;95247.50;5068420;28;20469;-70
2023/08/03 09:24:40;;;;;;;5.23;1.47;;;;;;;24.76;31.98;95258.22;5067812;28;20601;-71
2023/08/03 09:27:06;;;;;;;16.87;2.80;;;;;;;24.11;33.08;95259.59;5067367;28;20566;-71
2023/08/03 09:29:32;;;;;;;5.50;1.13;;;;;;;24.09;33.32;95265.13;5068013;28;20227;-69
2023/08/03 09:32:02;;;;;;;8.13;1.80;;;;;;;23.92;34.05;95275.13;5088528;28;20207;-70
2023/08/03 09:34:42;;;;;;;3.27;0.83;;;;;;;23.74;34.35;95278.09;5086179;28;20411;-69
2023/08/03 09:37:09;;;;;;;13.87;1.87;;;;;;;23.64;34.93;95280.13;5087825;28;20476;-70
2023/08/03 09:39:36;;;;;;;4.30;1.73;;;;;;;23.49;35.14;95281.88;5088610;28;20464;-70
2023/08/03 09:42:03;;;;;;;5.60;1.00;;;;;;;23.53;34.84;95285.84;5068850;28;20880;-70
2023/08/03 09:44:31;;;;;;;4.03;1.00;;;;;;;23.97;34.89;95279.97;5071831;28;20444;-68
2023/08/03 09:46:57;;;;;;;2.53;1.00;;;;;;;24.34;34.12;95278.38;5072304;28;20509;-67
2023/08/03 09:49:24;;;;;;;1.90;0.90;;;;;;;24.53;33.93;95283.25;5065933;28;20428;-69
2023/08/03 09:51:55;;;;;;;1.60;0.80;;;;;;;24.83;33.13;95280.63;5071662;28;20185;-67
2023/08/03 09:54:55;;;;;;;3.27;1.10;;;;;;;24.91;33.25;95285.91;5067022;28;20478;-67
2023/08/03 09:57:23;;;;;;;7.07;1.53;;;;;;;25.06;33.07;95283.22;5061308;28;20504;-67
2023/08/03 09:59:58;;;;;;;8.50;1.97;;;;;;;25.26;33.26;95291.63;5069743;28;20519;-70
2023/08/03 10:02:28;;;;;;;4.00;1.03;;;;;;;25.05;33.35;95289.63;5065822;28;20436;-69
2023/08/03 10:04:59;;;;;;;2.40;0.90;;;;;;;25.31;32.60;95297.25;5071766;28;20400;-69
2023/08/03 10:07:32;;;;;;;4.83;1.20;;;;;;;25.25;32.21;95298.00;5071565;28;20811;-69
2023/08/03 10:10:00;;;;;;;5.63;0.90;;;;;;;24.98;32.28;95299.44;5070914;28;20407;-70
2023/08/03 10:12:35;;;;;;;7.03;1.23;;;;;;;25.09;32.75;95291.75;5072326;28;20440;-68
2023/08/03 10:15:02;;;;;;;9.73;1.80;;;;;;;24.92;32.84;95309.91;5073026;28;21025;-69
2023/08/03 10:17:28;;;;;;;16.93;2.30;;;;;;;24.74;32.69;95311.25;5073092;28;21012;-68
2023/08/03 10:19:54;;;;;;;22.30;3.50;;;;;;;24.75;32.98;95299.47;5092200;28;20504;-69
2023/08/03 10:22:20;;;;;;;3.63;1.03;;;;;;;24.82;33.51;95309.31;5092569;28;20408;-69
2023/08/03 10:25:17;;;;;;;13.40;1.70;;;;;;;24.89;33.36;95301.34;5092733;28;20404;-69
2023/08/03 10:28:13;;;;;;;8.73;1.90;;;;;;;25.22;32.97;95303.75;5093435;28;20201;-67
2023/08/03 10:31:18;;;;;;;6.37;1.30;;;;;;;24.93;32.91;95308.03;5095951;28;20423;-69
2023/08/03 10:33:47;;;;;;;5.10;1.00;;;;;;;24.96;33.01;95304.16;5093154;28;20490;-69
2023/08/03 10:36:30;;;;;;;6.90;1.20;;;;;;;25.01;33.24;95299.88;5086304;28;20487;-72
2023/08/03 10:39:11;;;;;;;3.00;1.00;;;;;;;24.65;33.32;95302.44;5085219;28;20401;-68
2023/08/03 10:41:39;;;;;;;3.73;0.90;;;;;;;24.82;32.96;95295.88;5069971;28;20416;-71
2023/08/03 10:44:04;;;;;;;4.97;1.10;;;;;;;24.65;33.38;95316.66;5077673;28;20447;-69
2023/08/03 10:46:34;;;;;;;6.30;1.50;;;;;;;24.61;33.20;95315.34;5083451;28;20456;-69
2023/08/03 10:48:59;;;;;;;6.00;1.37;;;;;;;24.49;32.99;95311.44;5052420;28;20183;-67
2023/08/03 10:51:25;;;;;;;6.17;1.47;;;;;;;24.42;32.88;95313.13;5054838;28;20485;-70
2023/08/03 10:53:51;;;;;;;8.93;1.53;;;;;;;24.50;33.18;95313.94;5069485;28;20546;-69
2023/08/03 10:56:16;;;;;;;3.73;1.40;;;;;;;24.64;33.14;95309.66;5080929;28;20198;-71
2023/08/03 10:58:50;;;;;;;3.13;1.20;;;;;;;24.58;33.32;95314.91;5067124;28;20174;-70
2023/08/03 11:01:25;;;;;;;8.53;1.30;;;;;;;24.54;33.36;95322.47;5069100;28;20170;-68
2023/08/03 11:03:50;;;;;;;4.57;1.00;;;;;;;24.59;33.31;95321.91;5066218;28;20485;-67
2023/08/03 11:06:17;;;;;;;3.73;1.13;;;;;;;24.45;33.80;95323.50;5063362;28;20448;-70
2023/08/03 11:08:46;;;;;;;2.27;0.73;;;;;;;24.77;33.15;95325.13;5069003;28;20174;-71
2023/08/03 11:11:12;;;;;;;11.70;1.97;;;;;;;24.61;33.59;95327.94;5068960;28;20897;-68
2023/08/03 11:13:41;;;;;;;7.00;1.47;;;;;;;24.38;34.38;95335.94;5068598;28;20421;-70
2023/08/03 11:16:07;;;;;;;3.40;1.00;;;;;;;24.37;34.64;95329.75;5060504;28;20456;-71
2023/08/03 11:18:35;;;;;;;6.57;1.00;;;;;;;24.43;34.85;95331.75;5054387;28;20501;-69
2023/08/03 11:21:01;;;;;;;7.67;1.20;;;;;;;24.10;34.35;95328.47;5068591;28;20770;-71
2023/08/03 11:23:31;;;;;;;1.83;1.00;;;;;;;23.90;34.75;95329.91;5067294;28;20515;-72
2023/08/03 11:25:57;;;;;;;3.60;1.33;;;;;;;23.81;34.40;95324.59;5069212;28;20213;-74
2023/08/03 11:28:22;;;;;;;6.87;1.50;;;;;;;23.63;34.75;95326.66;5067123;28;20540;-70